Time;durP1;ratioP1;P1;durP2;ratioP2;P2;SDS_P1;SDS_P2;PMS_P1;PMS_P2;Temp;Humidity;BMP_temperature;BMP_pressure;BME280_temperature;BME280_humidity;BME280_pressure;Samples;Min_cycle;Max_cycle;Signal;HPM_P1;HPM_P2
2023/03/08 00:01:08;;;;;;;0.73;0.43;;;0.90;99.90;;;;;;5005607;28;20052;-73
2023/03/08 00:03:34;;;;;;;2.78;0.70;;;0.90;99.90;;;;;;5017802;28;20037;-73
2023/03/08 00:06:03;;;;;;;0.30;0.22;;;0.90;99.90;;;;;;5018570;28;20048;-73
2023/03/08 00:08:29;;;;;;;1.10;0.57;;;0.90;99.90;;;;;;5049816;28;20483;-73
2023/03/08 00:10:55;;;;;;;1.08;0.40;;;0.90;99.90;;;;;;5049393;28;20037;-73
2023/03/08 00:13:20;;;;;;;0.30;0.30;;;0.90;99.90;;;;;;5034493;28;20048;-73
2023/03/08 00:15:46;;;;;;;0.38;0.22;;;0.90;99.90;;;;;;5020009;28;20410;-73
2023/03/08 00:18:11;;;;;;;1.20;0.63;;;0.90;99.90;;;;;;5068416;28;20045;-73
2023/03/08 00:20:37;;;;;;;0.95;0.70;;;0.90;99.90;;;;;;5018844;28;20060;-73
2023/03/08 00:23:02;;;;;;;0.85;0.40;;;0.90;99.90;;;;;;5019159;28;20598;-73
2023/03/08 00:25:28;;;;;;;2.40;0.90;;;0.90;99.90;;;;;;5020682;28;20042;-73
2023/03/08 00:27:54;;;;;;;0.93;0.63;;;0.80;99.90;;;;;;5016956;28;20029;-73
2023/03/08 00:30:19;;;;;;;0.20;0.20;;;0.80;99.90;;;;;;5020342;28;20726;-73
2023/03/08 00:32:45;;;;;;;0.68;0.40;;;0.80;99.90;;;;;;5018789;28;20096;-73
2023/03/08 00:35:11;;;;;;;0.60;0.40;;;0.80;99.90;;;;;;5022140;28;20049;-73
2023/03/08 00:37:37;;;;;;;3.60;0.40;;;0.80;99.90;;;;;;5021548;28;20055;-73
2023/03/08 00:40:04;;;;;;;1.00;0.45;;;0.80;99.90;;;;;;5033802;28;20099;-73
2023/03/08 00:42:30;;;;;;;0.70;0.40;;;0.80;99.90;;;;;;5020529;28;20068;-73
2023/03/08 00:44:55;;;;;;;3.40;0.80;;;0.80;99.90;;;;;;5020512;28;20045;-73
2023/03/08 00:47:21;;;;;;;1.13;0.68;;;0.80;99.90;;;;;;5016878;28;20040;-73
2023/03/08 00:49:46;;;;;;;0.70;0.50;;;0.80;99.90;;;;;;5018048;28;20045;-73
2023/03/08 00:52:12;;;;;;;0.57;0.30;;;0.70;99.90;;;;;;5003099;28;20544;-73
2023/03/08 00:54:37;;;;;;;0.20;0.20;;;0.70;99.90;;;;;;5003774;28;20044;-73
2023/03/08 00:57:03;;;;;;;0.63;0.30;;;0.70;99.90;;;;;;5020775;28;20045;-73
2023/03/08 00:59:29;;;;;;;0.85;0.30;;;0.70;99.90;;;;;;5048907;28;20130;-73
2023/03/08 01:01:54;;;;;;;0.50;0.40;;;0.70;99.90;;;;;;5052168;28;20547;-73
2023/03/08 01:04:20;;;;;;;1.13;0.68;;;0.70;99.90;;;;;;5018210;28;20133;-73
2023/03/08 01:06:45;;;;;;;0.57;0.30;;;0.70;99.90;;;;;;5021990;28;20038;-73
2023/03/08 01:09:11;;;;;;;3.92;0.68;;;0.70;99.90;;;;;;5017640;28;20037;-73
2023/03/08 01:11:37;;;;;;;0.80;0.38;;;0.70;99.90;;;;;;5036704;28;20037;-73
2023/03/08 01:14:04;;;;;;;0.40;0.25;;;0.70;99.90;;;;;;5019204;28;20045;-73
2023/03/08 01:16:32;;;;;;;0.20;0.20;;;0.70;99.90;;;;;;5049843;28;20107;-73
2023/03/08 01:18:58;;;;;;;0.65;0.40;;;0.70;99.90;;;;;;5019845;28;20056;-73
2023/03/08 01:21:25;;;;;;;0.63;0.32;;;0.70;99.90;;;;;;5002982;28;20037;-73
2023/03/08 01:23:51;;;;;;;0.65;0.40;;;0.60;99.90;;;;;;5052718;28;20074;-73
2023/03/08 01:26:20;;;;;;;0.95;0.55;;;0.60;99.90;;;;;;5018977;28;20052;-73
2023/03/08 01:28:45;;;;;;;1.17;0.60;;;0.60;99.90;;;;;;5020053;28;20136;-73
2023/03/08 01:31:16;;;;;;;6.43;0.73;;;0.50;99.90;;;;;;5001507;28;20382;-73
2023/03/08 01:33:44;;;;;;;0.75;0.50;;;0.50;99.90;;;;;;5017128;28;20049;-73
2023/03/08 01:36:13;;;;;;;2.78;0.68;;;0.50;99.90;;;;;;5017201;28;20484;-73
2023/03/08 01:38:40;;;;;;;1.15;0.43;;;0.50;99.90;;;;;;5018986;28;20048;-73
2023/03/08 01:41:06;;;;;;;0.88;0.60;;;0.50;99.90;;;;;;5000580;28;20092;-73
2023/03/08 01:43:35;;;;;;;1.23;0.47;;;0.50;99.90;;;;;;5017550;28;20120;-73
2023/03/08 01:46:19;;;;;;;1.67;0.77;;;0.50;99.90;;;;;;5002699;28;20451;-73
2023/03/08 01:49:06;;;;;;;1.25;1.02;;;0.50;99.90;;;;;;5009771;28;20057;-73
2023/03/08 01:51:41;;;;;;;2.45;1.48;;;0.50;99.90;;;;;;5017641;28;20120;-73
2023/03/08 01:54:14;;;;;;;1.15;0.50;;;0.40;99.90;;;;;;5032387;28;20041;-73
2023/03/08 01:56:42;;;;;;;0.47;0.32;;;0.40;99.90;;;;;;5018828;28;20151;-73
2023/03/08 01:59:09;;;;;;;1.33;0.73;;;0.40;99.90;;;;;;5057366;28;20041;-73
2023/03/08 02:01:34;;;;;;;1.27;0.60;;;0.40;99.90;;;;;;5056476;28;20102;-73
2023/03/08 02:04:01;;;;;;;1.38;0.70;;;0.40;99.90;;;;;;5020336;28;20049;-73
2023/03/08 02:06:27;;;;;;;0.65;0.60;;;0.40;99.90;;;;;;5055029;28;20060;-73
2023/03/08 02:08:53;;;;;;;1.27;0.40;;;0.40;99.90;;;;;;5023908;28;20034;-73
2023/03/08 02:11:20;;;;;;;1.63;0.88;;;0.40;99.90;;;;;;5022779;28;20033;-73
2023/03/08 02:13:47;;;;;;;1.50;0.88;;;0.40;99.90;;;;;;5022067;28;20053;-73
2023/03/08 02:16:15;;;;;;;1.50;0.73;;;0.50;99.90;;;;;;5004685;28;20071;-73
2023/03/08 02:19:02;;;;;;;2.33;0.98;;;0.50;99.90;;;;;;5049301;28;20049;-73
2023/03/08 02:21:30;;;;;;;1.10;0.75;;;0.50;99.90;;;;;;5004940;28;20044;-73
2023/03/08 02:24:04;;;;;;;1.75;1.25;;;0.50;99.90;;;;;;5007090;28;20045;-73
2023/03/08 02:26:30;;;;;;;1.88;1.45;;;0.50;99.90;;;;;;5050986;28;20049;-73
2023/03/08 02:28:55;;;;;;;2.13;1.15;;;0.50;99.90;;;;;;5024121;28;20053;-73
2023/03/08 02:31:21;;;;;;;1.92;0.98;;;0.40;99.90;;;;;;5022946;28;20037;-73
2023/03/08 02:33:47;;;;;;;4.40;1.13;;;0.40;99.90;;;;;;5021529;28;20495;-73
2023/03/08 02:36:12;;;;;;;2.10;0.95;;;0.40;99.90;;;;;;5005209;28;20049;-73
2023/03/08 02:38:38;;;;;;;3.55;1.38;;;0.40;99.90;;;;;;5022421;28;20049;-73
2023/03/08 02:41:04;;;;;;;1.60;1.00;;;0.40;99.90;;;;;;5021934;28;20084;-73
2023/03/08 02:43:29;;;;;;;4.50;1.33;;;0.30;99.90;;;;;;5023328;28;20037;-73
2023/03/08 02:45:55;;;;;;;4.05;2.15;;;0.30;99.90;;;;;;5023197;28;20068;-73
2023/03/08 02:48:20;;;;;;;2.15;1.20;;;0.30;99.90;;;;;;5019796;28;20157;-73
2023/03/08 02:50:46;;;;;;;2.30;1.42;;;0.30;99.90;;;;;;5045775;28;20034;-73
2023/03/08 02:53:12;;;;;;;2.83;1.58;;;0.30;99.90;;;;;;5020569;28;20091;-73
2023/03/08 02:55:38;;;;;;;2.85;1.50;;;0.20;99.90;;;;;;5023110;28;20072;-73
2023/03/08 02:58:05;;;;;;;3.60;1.65;;;0.30;99.90;;;;;;5019719;28;20510;-73
2023/03/08 03:00:31;;;;;;;2.88;1.50;;;0.30;99.90;;;;;;5054551;28;20592;-73
2023/03/08 03:02:57;;;;;;;2.85;1.65;;;0.30;99.90;;;;;;5054617;28;20045;-73
2023/03/08 03:05:23;;;;;;;3.00;1.40;;;0.30;99.90;;;;;;5034531;28;20052;-73
2023/03/08 03:07:49;;;;;;;3.92;1.85;;;0.30;99.90;;;;;;5029529;28;20033;-73
2023/03/08 03:10:14;;;;;;;4.47;1.80;;;0.40;99.90;;;;;;5006872;28;20049;-73
2023/03/08 03:12:42;;;;;;;3.67;1.90;;;0.40;99.90;;;;;;5021198;28;20045;-73
2023/03/08 03:15:09;;;;;;;2.20;1.13;;;0.40;99.90;;;;;;5051504;28;20088;-73
2023/03/08 03:17:35;;;;;;;3.90;1.77;;;0.40;99.90;;;;;;5005961;28;20040;-73
2023/03/08 03:20:03;;;;;;;4.55;2.22;;;0.40;99.90;;;;;;5052448;28;20103;-73
2023/03/08 03:22:29;;;;;;;1.90;1.50;;;0.40;99.90;;;;;;5021244;28;20037;-73
2023/03/08 03:24:55;;;;;;;4.22;1.90;;;0.30;99.90;;;;;;5029302;28;20052;-73
2023/03/08 03:27:20;;;;;;;2.47;1.23;;;0.30;99.90;;;;;;5039918;28;20033;-73
2023/03/08 03:29:46;;;;;;;2.63;1.80;;;0.30;99.90;;;;;;5003645;28;20100;-73
2023/03/08 03:32:12;;;;;;;2.67;1.33;;;0.20;99.90;;;;;;5054262;28;20042;-73
2023/03/08 03:34:38;;;;;;;4.00;1.58;;;0.20;99.90;;;;;;5035596;28;20427;-73
2023/03/08 03:37:04;;;;;;;2.65;1.60;;;0.20;99.90;;;;;;5021157;28;20048;-73
2023/03/08 03:39:32;;;;;;;3.03;1.33;;;0.20;99.90;;;;;;5019052;28;20045;-73
2023/03/08 03:41:59;;;;;;;3.15;1.45;;;0.20;99.90;;;;;;5003879;28;20048;-73
2023/03/08 03:44:27;;;;;;;4.82;1.92;;;0.20;99.90;;;;;;5005460;28;20042;-73
2023/03/08 03:46:53;;;;;;;4.30;2.67;;;0.10;99.90;;;;;;5019459;28;20044;-73
2023/03/08 03:49:19;;;;;;;2.05;1.83;;;0.10;99.90;;;;;;5020904;28;20030;-72
2023/03/08 03:51:44;;;;;;;2.95;1.48;;;0.20;99.90;;;;;;5019218;28;20128;-73
2023/03/08 03:54:10;;;;;;;2.63;1.50;;;0.10;99.90;;;;;;5038223;28;20150;-73
2023/03/08 03:56:35;;;;;;;2.17;1.55;;;0.20;99.90;;;;;;5019316;28;20046;-73
2023/03/08 03:59:01;;;;;;;3.10;1.67;;;0.20;99.90;;;;;;5067532;28;20037;-73
2023/03/08 04:01:29;;;;;;;3.28;1.90;;;0.10;99.90;;;;;;5051789;28;20045;-73
2023/03/08 04:03:55;;;;;;;5.35;2.55;;;0.10;99.90;;;;;;5004272;28;20885;-73
2023/03/08 04:06:23;;;;;;;5.10;2.15;;;0.10;99.90;;;;;;5017641;28;20029;-73
2023/03/08 04:08:52;;;;;;;3.60;1.60;;;0.10;99.90;;;;;;5021938;28;20443;-73
2023/03/08 04:11:21;;;;;;;4.22;2.53;;;0.10;99.90;;;;;;5016804;28;20047;-73
2023/03/08 04:13:47;;;;;;;3.92;2.05;;;0.10;99.90;;;;;;5004213;28;20069;-73
2023/03/08 04:16:25;;;;;;;3.17;2.10;;;0.10;99.90;;;;;;5018768;28;20474;-73
2023/03/08 04:18:58;;;;;;;3.55;1.70;;;0.10;99.90;;;;;;5053236;28;20092;-73
2023/03/08 04:21:25;;;;;;;5.30;2.00;;;0.10;99.90;;;;;;5018568;28;20037;-73
2023/03/08 04:23:50;;;;;;;6.13;2.58;;;0.20;99.90;;;;;;5054138;28;20495;-73
2023/03/08 04:26:16;;;;;;;4.60;1.95;;;0.10;99.90;;;;;;5050927;28;20029;-73
2023/03/08 04:28:42;;;;;;;3.33;2.20;;;0.20;99.90;;;;;;5002198;28;20057;-73
2023/03/08 04:31:26;;;;;;;3.00;1.85;;;0.20;99.90;;;;;;5016836;28;20033;-73
2023/03/08 04:33:52;;;;;;;2.85;1.70;;;0.20;99.90;;;;;;5031506;28;20045;-73
2023/03/08 04:36:18;;;;;;;3.78;2.08;;;0.20;99.90;;;;;;5017112;28;20045;-73
2023/03/08 04:38:45;;;;;;;6.45;1.75;;;0.20;99.90;;;;;;5051594;28;20037;-73
2023/03/08 04:41:12;;;;;;;3.17;2.00;;;0.30;99.90;;;;;;5004223;28;20123;-73
2023/03/08 04:43:49;;;;;;;3.47;1.77;;;0.30;99.90;;;;;;5015864;28;20124;-73
2023/03/08 04:46:16;;;;;;;3.22;2.10;;;0.20;99.90;;;;;;5033993;28;20061;-73
2023/03/08 04:48:42;;;;;;;3.53;1.63;;;0.30;99.90;;;;;;5050605;28;20041;-73
2023/03/08 04:51:11;;;;;;;2.58;1.73;;;0.30;99.90;;;;;;5019611;28;20044;-73
2023/03/08 04:53:38;;;;;;;2.25;1.77;;;0.30;99.90;;;;;;5019560;28;20048;-73
2023/03/08 04:56:05;;;;;;;2.63;1.80;;;0.30;99.90;;;;;;5032980;28;20053;-73
2023/03/08 04:58:31;;;;;;;5.00;2.20;;;0.30;99.90;;;;;;5003149;28;20128;-73
2023/03/08 05:00:56;;;;;;;4.28;2.10;;;0.30;99.90;;;;;;5016876;28;20402;-73
2023/03/08 05:03:22;;;;;;;2.55;1.48;;;0.30;99.90;;;;;;5018674;28;20029;-73
2023/03/08 05:05:53;;;;;;;4.18;1.63;;;0.30;99.90;;;;;;5018865;28;20068;-73
2023/03/08 05:08:21;;;;;;;3.20;1.40;;;0.30;99.90;;;;;;5017980;28;20037;-73
2023/03/08 05:10:56;;;;;;;2.10;1.55;;;0.40;99.90;;;;;;5032204;28;20034;-73
2023/03/08 05:13:23;;;;;;;3.88;2.55;;;0.40;99.90;;;;;;5052615;28;20303;-73
2023/03/08 05:15:49;;;;;;;3.25;1.90;;;0.40;99.90;;;;;;5019581;28;20091;-73
2023/03/08 05:18:14;;;;;;;3.70;2.25;;;0.40;99.90;;;;;;5035551;28;20071;-73
2023/03/08 05:20:40;;;;;;;3.20;1.88;;;0.40;99.90;;;;;;5016232;28;20048;-73
2023/03/08 05:23:06;;;;;;;2.78;1.83;;;0.40;99.90;;;;;;5019230;28;20071;-73
2023/03/08 05:25:32;;;;;;;6.93;2.33;;;0.40;99.90;;;;;;5035329;28;20045;-73
2023/03/08 05:27:58;;;;;;;3.13;2.13;;;0.40;99.90;;;;;;5020803;28;20037;-73
2023/03/08 05:30:24;;;;;;;2.92;1.65;;;0.40;99.90;;;;;;5018240;28;20514;-73
2023/03/08 05:32:49;;;;;;;3.13;1.77;;;0.30;99.90;;;;;;5033105;28;20037;-73
2023/03/08 05:35:15;;;;;;;3.20;1.77;;;0.30;99.90;;;;;;5048899;28;20075;-73
2023/03/08 05:37:41;;;;;;;2.45;1.45;;;0.30;99.90;;;;;;5051357;28;20033;-73
2023/03/08 05:40:07;;;;;;;3.85;2.00;;;0.30;99.90;;;;;;5019709;28;20464;-73
2023/03/08 05:42:32;;;;;;;2.80;1.65;;;0.20;99.90;;;;;;5017134;28;20521;-73
2023/03/08 05:44:58;;;;;;;3.70;2.00;;;0.20;99.90;;;;;;5002053;28;20083;-73
2023/03/08 05:47:24;;;;;;;2.30;1.60;;;0.10;99.90;;;;;;5016798;28;20041;-73
2023/03/08 05:49:50;;;;;;;2.92;1.80;;;0.10;99.90;;;;;;5031458;28;20076;-73
2023/03/08 05:52:16;;;;;;;3.90;2.00;;;0.10;99.90;;;;;;5003405;28;20033;-73
2023/03/08 05:54:42;;;;;;;3.17;2.05;;;0.10;99.90;;;;;;5017380;28;20172;-73
2023/03/08 05:57:08;;;;;;;5.30;1.92;;;0.10;99.90;;;;;;5017743;28;20195;-73
2023/03/08 05:59:33;;;;;;;3.75;2.08;;;0.10;99.90;;;;;;5020028;28;20713;-73
2023/03/08 06:01:59;;;;;;;7.93;2.33;;;0.10;99.90;;;;;;5015542;28;20380;-73
2023/03/08 06:04:24;;;;;;;2.42;1.67;;;0.10;99.90;;;;;;5048546;28;20069;-73
2023/03/08 06:06:50;;;;;;;3.63;2.08;;;0.10;99.90;;;;;;5017284;28;20065;-73
2023/03/08 06:09:16;;;;;;;3.10;2.00;;;0.00;99.90;;;;;;5019880;28;20034;-73
2023/03/08 06:11:41;;;;;;;2.78;1.75;;;0.00;99.90;;;;;;5019983;28;20509;-73
2023/03/08 06:14:07;;;;;;;3.15;2.17;;;0.10;99.90;;;;;;5048642;28;20042;-73
2023/03/08 06:16:32;;;;;;;2.88;2.15;;;0.10;99.90;;;;;;5018526;28;20891;-73
2023/03/08 06:18:59;;;;;;;3.47;2.13;;;0.10;99.90;;;;;;5017449;28;20044;-73
2023/03/08 06:21:25;;;;;;;5.72;2.60;;;0.10;99.90;;;;;;5017545;28;20507;-73
2023/03/08 06:23:50;;;;;;;2.90;2.33;;;0.10;99.90;;;;;;5016456;28;20042;-73
2023/03/08 06:26:16;;;;;;;4.03;2.28;;;0.10;99.90;;;;;;5018493;28;20029;-73
2023/03/08 06:28:42;;;;;;;3.80;2.00;;;0.20;99.90;;;;;;5031188;28;20046;-73
2023/03/08 06:31:11;;;;;;;3.60;2.30;;;0.20;99.90;;;;;;5014757;28;20501;-74
2023/03/08 06:33:37;;;;;;;3.28;2.00;;;0.20;99.90;;;;;;5047378;28;20159;-73
2023/03/08 06:36:17;;;;;;;2.22;1.83;;;0.20;99.90;;;;;;5051246;28;20061;-73
2023/03/08 06:38:43;;;;;;;3.85;2.38;;;0.20;99.90;;;;;;5029512;28;20436;-73
2023/03/08 06:41:10;;;;;;;4.88;2.40;;;0.20;99.90;;;;;;5004070;28;20041;-73
2023/03/08 06:43:36;;;;;;;2.58;1.83;;;0.20;99.90;;;;;;5051955;28;20166;-72
2023/03/08 06:46:08;;;;;;;3.80;1.83;;;0.20;99.90;;;;;;5023579;28;20037;-73
2023/03/08 06:48:35;;;;;;;3.97;2.38;;;0.20;99.90;;;;;;5020770;28;20045;-73
2023/03/08 06:51:01;;;;;;;3.20;2.03;;;0.30;99.90;;;;;;5005569;28;20115;-73
2023/03/08 06:53:27;;;;;;;3.75;2.28;;;0.30;99.90;;;;;;5045181;28;20136;-73
2023/03/08 06:55:52;;;;;;;4.25;2.22;;;0.30;99.90;;;;;;5019687;28;20415;-73
2023/03/08 06:58:18;;;;;;;3.38;2.33;;;0.30;99.90;;;;;;5051724;28;20037;-73
2023/03/08 07:00:44;;;;;;;2.75;1.63;;;0.40;99.90;;;;;;5050774;28;20115;-73
2023/03/08 07:03:13;;;;;;;5.20;2.30;;;0.30;99.90;;;;;;5038314;28;20261;-73
2023/03/08 07:05:39;;;;;;;3.70;2.10;;;0.40;99.90;;;;;;5001732;28;20041;-73
2023/03/08 07:08:05;;;;;;;3.58;1.75;;;0.40;99.90;;;;;;5023292;28;20042;-73
2023/03/08 07:10:31;;;;;;;4.00;2.40;;;0.40;99.90;;;;;;5003703;28;20124;-78
2023/03/08 07:12:57;;;;;;;4.43;2.63;;;0.40;99.90;;;;;;5006268;28;20025;-76
2023/03/08 07:15:23;;;;;;;4.43;2.60;;;0.50;99.90;;;;;;5016819;28;20041;-74
2023/03/08 07:17:51;;;;;;;5.13;2.90;;;0.50;99.90;;;;;;5053095;28;20069;-73
2023/03/08 07:20:18;;;;;;;4.65;2.97;;;0.50;99.90;;;;;;5049236;28;20045;-75
2023/03/08 07:22:45;;;;;;;3.30;2.42;;;0.50;99.90;;;;;;5018249;28;20045;-73
2023/03/08 07:25:13;;;;;;;9.30;2.45;;;0.60;99.90;;;;;;5052509;28;20029;-73
2023/03/08 07:27:38;;;;;;;5.03;1.92;;;0.60;99.90;;;;;;5051218;28;20073;-73
2023/03/08 07:30:08;;;;;;;2.13;1.55;;;0.70;99.90;;;;;;5054445;28;20084;-72
2023/03/08 07:32:34;;;;;;;5.53;1.77;;;0.70;99.90;;;;;;5038246;28;20065;-73
2023/03/08 07:34:59;;;;;;;2.53;2.10;;;0.80;99.90;;;;;;5002111;28;20072;-73
2023/03/08 07:37:25;;;;;;;2.28;1.77;;;0.80;99.90;;;;;;5052821;28;20406;-73
2023/03/08 07:39:51;;;;;;;2.70;2.20;;;0.80;99.90;;;;;;5007526;28;20033;-73
2023/03/08 07:42:17;;;;;;;3.17;2.03;;;0.80;99.90;;;;;;5024042;28;20037;-73
2023/03/08 07:44:42;;;;;;;2.95;1.92;;;0.80;99.90;;;;;;5007152;28;20045;-73
2023/03/08 07:47:09;;;;;;;2.42;1.48;;;0.90;99.90;;;;;;5057468;28;20046;-73
2023/03/08 07:49:34;;;;;;;3.50;1.80;;;0.90;99.90;;;;;;5037190;28;20080;-73
2023/03/08 07:52:00;;;;;;;2.83;1.80;;;0.90;99.90;;;;;;5052344;28;20080;-73
2023/03/08 07:54:26;;;;;;;2.50;1.75;;;0.90;99.90;;;;;;5057051;28;20100;-73
2023/03/08 07:56:53;;;;;;;3.67;2.00;;;1.00;99.90;;;;;;5023187;28;20045;-73
2023/03/08 07:59:18;;;;;;;3.17;2.13;;;1.00;99.90;;;;;;5038474;28;20063;-73
2023/03/08 08:01:44;;;;;;;2.58;1.70;;;1.00;99.90;;;;;;5056076;28;20033;-73
2023/03/08 08:04:11;;;;;;;2.40;1.77;;;1.00;99.90;;;;;;5021635;28;20050;-73
2023/03/08 08:06:38;;;;;;;4.35;2.30;;;1.10;99.90;;;;;;5002517;28;20043;-73
2023/03/08 08:09:04;;;;;;;3.28;1.50;;;1.10;99.90;;;;;;5023291;28;20069;-73
2023/03/08 08:11:30;;;;;;;3.05;1.67;;;1.10;99.90;;;;;;5002248;28;20038;-73
2023/03/08 08:13:55;;;;;;;5.68;1.88;;;1.20;99.90;;;;;;5055070;28;20084;-73
2023/03/08 08:16:21;;;;;;;2.55;1.92;;;1.20;99.90;;;;;;5021218;28;20465;-73
2023/03/08 08:18:47;;;;;;;2.63;1.55;;;1.20;99.90;;;;;;5021913;28;20053;-73
2023/03/08 08:21:14;;;;;;;2.78;2.25;;;1.20;99.90;;;;;;5054320;28;20045;-73
2023/03/08 08:23:41;;;;;;;3.03;2.08;;;1.30;99.90;;;;;;5020035;28;20037;-73
2023/03/08 08:26:10;;;;;;;4.20;2.17;;;1.30;99.90;;;;;;5022062;28;20542;-73
2023/03/08 08:28:36;;;;;;;3.17;2.13;;;1.30;99.90;;;;;;5018464;28;20576;-73
2023/03/08 08:31:10;;;;;;;3.45;2.53;;;1.30;99.90;;;;;;5053662;28;20394;-73
2023/03/08 08:33:36;;;;;;;3.15;2.10;;;1.30;99.90;;;;;;5053936;28;20045;-73
2023/03/08 08:36:07;;;;;;;2.88;1.60;;;1.30;99.90;;;;;;5019206;28;20041;-73
2023/03/08 08:38:33;;;;;;;3.78;1.98;;;1.30;99.90;;;;;;5021345;28;20041;-73
2023/03/08 08:41:00;;;;;;;2.55;1.77;;;1.40;99.90;;;;;;5023279;28;20057;-73
2023/03/08 08:43:26;;;;;;;3.22;1.90;;;1.40;99.90;;;;;;5052838;28;20099;-73
2023/03/08 08:45:54;;;;;;;3.85;2.35;;;1.40;99.90;;;;;;5021623;28;20037;-73
2023/03/08 08:48:20;;;;;;;2.30;1.70;;;1.40;99.90;;;;;;5005916;28;20033;-73
2023/03/08 08:50:46;;;;;;;3.42;2.17;;;1.50;99.90;;;;;;5019766;28;20034;-73
2023/03/08 08:53:11;;;;;;;3.22;1.63;;;1.50;99.90;;;;;;5038446;28;20065;-73
2023/03/08 08:55:37;;;;;;;2.63;1.83;;;1.60;99.90;;;;;;5022625;28;20041;-73
2023/03/08 08:58:03;;;;;;;3.58;1.92;;;1.60;99.90;;;;;;5004677;28;20039;-73
2023/03/08 09:00:30;;;;;;;3.47;1.98;;;1.60;99.90;;;;;;5005950;28;20099;-73
2023/03/08 09:02:56;;;;;;;3.72;2.70;;;1.60;99.90;;;;;;5054091;28;20090;-73
2023/03/08 09:05:22;;;;;;;4.18;1.95;;;1.70;99.90;;;;;;5022750;28;20037;-73
2023/03/08 09:07:48;;;;;;;4.28;1.98;;;1.70;99.90;;;;;;5023342;28;20040;-73
2023/03/08 09:10:14;;;;;;;3.22;1.98;;;1.70;99.90;;;;;;5018854;28;20392;-73
2023/03/08 09:12:41;;;;;;;6.88;2.33;;;1.70;99.90;;;;;;5020751;28;20044;-73
2023/03/08 09:15:09;;;;;;;4.18;2.50;;;1.70;99.90;;;;;;5000318;28;20041;-73
2023/03/08 09:17:34;;;;;;;4.93;2.33;;;1.80;99.90;;;;;;5013751;28;20156;-73
2023/03/08 09:20:00;;;;;;;2.38;1.70;;;1.80;99.90;;;;;;5013453;28;20030;-73
2023/03/08 09:22:25;;;;;;;3.25;2.08;;;1.80;99.90;;;;;;5016897;28;20168;-73
2023/03/08 09:24:51;;;;;;;5.40;2.05;;;1.80;99.90;;;;;;5017675;28;20041;-73
2023/03/08 09:27:17;;;;;;;3.17;2.20;;;1.90;99.90;;;;;;5053658;28;20464;-73
2023/03/08 09:29:42;;;;;;;4.80;2.45;;;1.90;99.90;;;;;;5048283;28;20046;-73
2023/03/08 09:32:08;;;;;;;4.63;2.78;;;2.00;99.90;;;;;;5017378;28;20406;-73
2023/03/08 09:34:34;;;;;;;5.35;2.40;;;1.90;99.90;;;;;;5050524;28;20088;-73
2023/03/08 09:36:59;;;;;;;6.45;3.42;;;1.90;99.90;;;;;;5011325;28;20463;-73
2023/03/08 09:39:26;;;;;;;5.50;3.13;;;2.00;99.90;;;;;;5000597;28;20053;-74
2023/03/08 09:41:54;;;;;;;5.10;2.85;;;2.00;99.90;;;;;;5013335;28;20534;-73
2023/03/08 09:44:46;;;;;;;6.50;3.10;;;2.00;99.90;;;;;;5052276;28;21849;-73
2023/03/08 09:47:14;;;;;;;5.57;3.05;;;2.00;99.90;;;;;;5001009;28;20041;-73
2023/03/08 09:49:45;;;;;;;5.72;3.00;;;2.00;99.90;;;;;;5014535;28;20128;-73
2023/03/08 09:52:28;;;;;;;4.43;2.25;;;2.10;99.90;;;;;;5018721;28;20049;-73
2023/03/08 09:54:57;;;;;;;4.53;2.63;;;2.00;99.90;;;;;;5050938;28;20041;-73
2023/03/08 09:57:27;;;;;;;5.25;2.90;;;2.00;99.90;;;;;;5054091;28;20059;-73
2023/03/08 09:59:59;;;;;;;6.78;2.90;;;2.10;99.90;;;;;;5054510;28;20037;-73
2023/03/08 10:02:45;;;;;;;5.53;3.20;;;2.10;99.90;;;;;;5052184;28;20175;-73
2023/03/08 10:05:25;;;;;;;7.15;3.10;;;2.10;99.90;;;;;;5049774;28;20050;-73
2023/03/08 10:08:03;;;;;;;5.70;2.80;;;2.10;99.90;;;;;;5004410;28;20037;-73
2023/03/08 10:10:47;;;;;;;4.85;3.13;;;2.10;99.90;;;;;;5051760;28;20403;-73
2023/03/08 10:13:27;;;;;;;4.55;3.03;;;2.10;99.90;;;;;;5031071;28;20069;-73
2023/03/08 10:16:28;;;;;;;5.00;2.75;;;2.10;99.90;;;;;;5036960;28;20049;-73
2023/03/08 10:19:12;;;;;;;5.75;3.25;;;2.10;99.90;;;;;;5017363;28;20061;-73
2023/03/08 10:21:42;;;;;;;6.43;3.45;;;2.00;99.90;;;;;;5049921;28;20041;-73
2023/03/08 10:24:14;;;;;;;6.18;2.65;;;2.00;99.90;;;;;;5014601;28;20045;-73
2023/03/08 10:26:42;;;;;;;8.73;3.75;;;2.00;99.90;;;;;;5046736;28;20115;-73
2023/03/08 10:29:10;;;;;;;7.35;3.33;;;2.00;99.90;;;;;;5050043;28;20088;-73
2023/03/08 10:31:36;;;;;;;4.35;3.10;;;2.10;99.90;;;;;;5049641;28;20177;-73
2023/03/08 10:34:12;;;;;;;6.72;3.13;;;2.10;99.90;;;;;;5016554;28;20303;-73
2023/03/08 10:37:00;;;;;;;5.88;3.05;;;2.20;99.90;;;;;;5036857;28;20072;-73
2023/03/08 10:39:25;;;;;;;6.35;3.38;;;2.20;99.90;;;;;;5022026;28;20419;-73
2023/03/08 10:42:00;;;;;;;8.13;3.67;;;2.20;99.90;;;;;;5021958;28;20041;-73
2023/03/08 10:44:41;;;;;;;6.65;3.10;;;2.20;99.90;;;;;;5024534;28;20045;-73
2023/03/08 10:47:21;;;;;;;8.75;3.42;;;2.20;99.90;;;;;;5023884;28;20091;-73
2023/03/08 10:49:46;;;;;;;5.30;3.05;;;2.20;99.90;;;;;;5053918;28;20052;-73
2023/03/08 10:52:26;;;;;;;6.38;3.28;;;2.30;99.90;;;;;;5007224;28;20034;-73
2023/03/08 10:55:12;;;;;;;5.80;2.42;;;2.30;99.90;;;;;;5019338;28;20045;-73
2023/03/08 10:57:41;;;;;;;5.05;3.13;;;2.30;99.90;;;;;;5020920;28;20068;-74
2023/03/08 11:00:19;;;;;;;3.50;2.10;;;2.40;99.90;;;;;;5019409;28;21633;-73
2023/03/08 11:02:46;;;;;;;4.03;2.58;;;2.50;99.90;;;;;;5007317;28;20913;-73
2023/03/08 11:05:25;;;;;;;6.05;3.92;;;2.60;99.90;;;;;;5019287;28;20026;-73
2023/03/08 11:07:53;;;;;;;7.82;2.95;;;2.70;99.90;;;;;;5006932;28;20036;-73
2023/03/08 11:10:24;;;;;;;5.63;2.80;;;2.70;99.90;;;;;;5056171;28;20071;-72
2023/03/08 11:13:00;;;;;;;4.38;2.38;;;2.80;99.90;;;;;;5056685;28;21414;-73
2023/03/08 11:15:29;;;;;;;8.07;2.72;;;2.80;99.90;;;;;;5038515;28;20069;-73
2023/03/08 11:18:16;;;;;;;5.07;3.08;;;2.90;99.90;;;;;;5024093;28;20045;-73
2023/03/08 11:20:53;;;;;;;5.38;2.33;;;3.00;99.90;;;;;;5054402;28;20038;-74
2023/03/08 11:23:50;;;;;;;4.38;2.28;;;3.00;99.90;;;;;;5056530;28;20049;-73
2023/03/08 11:26:22;;;;;;;5.20;2.10;;;3.10;99.90;;;;;;5051818;28;20490;-73
2023/03/08 11:28:51;;;;;;;4.45;2.03;;;3.20;99.90;;;;;;5021597;28;20451;-73
2023/03/08 11:31:50;;;;;;;4.68;2.17;;;3.20;99.90;;;;;;5040519;28;20396;-73
2023/03/08 11:34:45;;;;;;;6.22;2.17;;;3.30;99.90;;;;;;5037530;28;20049;-73
2023/03/08 11:37:30;;;;;;;5.97;2.10;;;3.30;99.90;;;;;;5056110;28;20407;-73
2023/03/08 11:40:47;;;;;;;9.27;3.33;;;3.30;99.90;;;;;;5000281;28;20050;-73
2023/03/08 11:43:35;;;;;;;5.43;2.42;;;3.30;99.90;;;;;;5013259;28;20041;-73
2023/03/08 11:46:16;;;;;;;7.82;3.10;;;3.40;99.90;;;;;;5018055;28;20060;-73
2023/03/08 11:49:08;;;;;;;8.05;3.25;;;3.40;99.90;;;;;;5018310;28;20038;-74
2023/03/08 11:51:50;;;;;;;6.22;2.33;;;3.40;99.90;;;;;;5018184;28;20044;-74
2023/03/08 11:54:54;;;;;;;5.45;2.58;;;3.40;99.90;;;;;;5012135;28;20108;-73
2023/03/08 11:57:21;;;;;;;5.32;2.38;;;3.40;99.90;;;;;;5001036;28;20175;-76
2023/03/08 11:59:55;;;;;;;4.30;1.77;;;3.50;99.90;;;;;;5017332;28;20569;-73
2023/03/08 12:02:33;;;;;;;8.95;2.10;;;3.50;99.90;;;;;;5002010;28;20038;-73
2023/03/08 12:05:17;;;;;;;5.70;2.53;;;3.50;99.90;;;;;;5060283;28;20037;-74
2023/03/08 12:08:11;;;;;;;5.65;1.88;;;3.50;99.90;;;;;;5028269;28;20156;-74
2023/03/08 12:10:50;;;;;;;4.68;2.20;;;3.50;99.90;;;;;;5006466;28;20045;-74
2023/03/08 12:13:22;;;;;;;5.80;2.22;;;3.50;99.90;;;;;;5028709;28;20124;-74
2023/03/08 12:16:12;;;;;;;6.18;2.20;;;3.50;99.90;;;;;;5027793;28;20099;-74
2023/03/08 12:18:52;;;;;;;4.75;2.28;;;3.60;99.90;;;;;;5012297;28;20044;-74
2023/03/08 12:21:23;;;;;;;4.28;2.08;;;3.50;99.90;;;;;;5027638;28;20076;-74
2023/03/08 12:23:55;;;;;;;5.68;2.13;;;3.60;99.90;;;;;;5011376;28;20052;-74
2023/03/08 12:26:34;;;;;;;7.88;2.72;;;3.60;99.90;;;;;;5056984;28;20037;-74
2023/03/08 12:29:05;;;;;;;3.63;1.52;;;3.60;99.90;;;;;;5028558;28;20053;-74
2023/03/08 12:31:39;;;;;;;4.18;1.70;;;3.60;99.90;;;;;;5028096;28;20511;-74
2023/03/08 12:34:24;;;;;;;3.85;1.50;;;3.60;99.90;;;;;;5023885;28;20041;-74
2023/03/08 12:36:49;;;;;;;4.47;1.63;;;3.70;99.90;;;;;;5044320;28;20197;-74
2023/03/08 12:39:26;;;;;;;2.63;1.27;;;3.70;99.90;;;;;;5025126;28;20104;-74
2023/03/08 12:41:57;;;;;;;7.50;1.95;;;3.80;99.90;;;;;;5056657;28;20048;-74
2023/03/08 12:44:26;;;;;;;3.53;1.20;;;3.80;99.90;;;;;;5020817;28;20510;-74
2023/03/08 12:47:01;;;;;;;2.65;1.10;;;3.70;99.90;;;;;;5051418;28;20423;-74
2023/03/08 12:49:34;;;;;;;4.15;1.38;;;3.70;99.90;;;;;;5049995;28;20046;-74
2023/03/08 12:52:13;;;;;;;5.95;1.80;;;3.70;99.90;;;;;;5015925;28;20037;-74
2023/03/08 12:54:39;;;;;;;3.15;1.45;;;3.70;99.90;;;;;;5023437;28;20041;-74
2023/03/08 12:57:19;;;;;;;2.97;1.25;;;3.60;99.90;;;;;;5039425;28;20047;-74
2023/03/08 12:59:45;;;;;;;4.30;1.67;;;3.70;99.90;;;;;;5053388;28;20049;-74
2023/03/08 13:02:24;;;;;;;4.55;1.30;;;3.70;99.90;;;;;;5022443;28;20107;-74
2023/03/08 13:05:12;;;;;;;3.45;1.20;;;3.80;99.90;;;;;;5020239;28;20391;-74
2023/03/08 13:08:06;;;;;;;5.07;1.73;;;3.80;99.90;;;;;;5035574;28;20227;-74
2023/03/08 13:10:57;;;;;;;2.33;0.98;;;3.80;99.90;;;;;;5014606;28;20060;-74